• Join FlightAware (Why Join?)
  • Login
  • US Flag 
09:02AM EDT


 

Airport Tracker/Info


-or-


 

Live Flight TrackerFlight Track Log ✈ SKW6345 ✈ 17-Aug-2013 ✈ KBZN - KSFO

Flight Track Log - Related Links

Times and Time Zones

All times are in EDT time to prevent confusion due to time zone crossing. See the SKW6345 flight status page for this flight to view local times or setup timezone preferences in your user account.

Time Position Orientation Groundspeed Altitude Reporting Facility
EDT Latitude Longitude Course Direction KTS MPH feet Rate Location/Type
01:54PM 45.7569 -111.1275 290° West 152 175 5,300  Level Salt Lake Center
01:55PM 45.7147 -111.1725 217° Southwest 225 259 7,100 1,800 Climbing Salt Lake Center
01:56PM 45.7056 -111.2631 262° West 236 272 9,000 1,680 Climbing Salt Lake Center
01:57PM 45.7455 -111.6880 288° West  Level FlightAware Approximate
01:57PM 45.7158 -111.3753 278° West 264 304 10,600  Level Salt Lake Center
01:58PM 45.7768 -111.8287 288° West  Level FlightAware Approximate
01:58PM 45.7286 -111.4869 279° West 276 318 12,500  Level Salt Lake Center
01:59PM 45.8089 -111.9691 290° West  Level FlightAware Approximate
01:59PM 45.7436 -111.6253 279° West 289 333 14,700  Level Salt Lake Center
02:00PM 45.7119 -111.7275 246° West 286 329 16,400 1,440 Climbing Salt Lake Center
02:01PM 45.6681 -111.8236 237° Southwest 289 333 17,800 1,140 Climbing Salt Lake Center
02:02PM 45.6233 -111.9217 237° Southwest 293 337 18,800 960 Climbing Salt Lake Center
02:03PM 45.5750 -112.0272 237° Southwest 312 359 19,800 960 Climbing Salt Lake Center
02:04PM 45.5242 -112.1342 236° Southwest 325 374 20,800 1,020 Climbing Salt Lake Center
02:05PM 45.4625 -112.2681 237° Southwest 336 387 22,000 960 Climbing Salt Lake Center
02:06PM 45.4100 -112.3817 237° Southwest 341 392 22,800 780 Climbing Salt Lake Center
02:07PM 45.3539 -112.5014 236° Southwest 351 404 23,700 780 Climbing Salt Lake Center
02:09PM 45.3008 -112.6131 236° Southwest 357 411 24,500 780 Climbing Salt Lake Center
02:10PM 45.2394 -112.7450 237° Southwest 359 413 25,400 720 Climbing Salt Lake Center
02:11PM 45.1864 -112.8578 236° Southwest 360 414 26,000 600 Climbing Salt Lake Center
02:12PM 45.1222 -112.9928 236° Southwest 370 426 26,700 540 Climbing Salt Lake Center
02:13PM 45.0669 -113.1081 236° Southwest 370 426 27,200 540 Climbing Salt Lake Center
02:14PM 45.0008 -113.2439 235° Southwest 374 430 27,900 600 Climbing Salt Lake Center
02:15PM 44.9447 -113.3600 236° Southwest 375 432 28,500 540 Climbing Salt Lake Center
02:16PM 44.8789 -113.4958 236° Southwest 376 433 29,100 480 Climbing Salt Lake Center
02:17PM 44.8225 -113.6125 236° Southwest 376 433 29,500 420 Climbing Salt Lake Center
02:18PM 44.7553 -113.7497 235° Southwest 380 437 30,000 240 Climbing Salt Lake Center
02:19PM 44.6981 -113.8672 236° Southwest 381 438 30,000  Level Salt Lake Center
02:20PM 44.6289 -114.0097 236° Southwest 390 449 30,000  Level Salt Lake Center
02:21PM 44.5678 -114.1331 235° Southwest 399 459 30,000  Level Salt Lake Center
02:22PM 44.5069 -114.2581 236° Southwest 403 464 30,000  Level Salt Lake Center
02:23PM 44.4342 -114.4047 235° Southwest 408 470 30,000  Level Salt Lake Center
02:24PM 44.3703 -114.5306 235° Southwest 413 475 30,000  Level Salt Lake Center
02:25PM 44.2958 -114.6769 235° Southwest 413 475 30,000  Level Salt Lake Center
02:26PM 44.2244 -114.7947 230° Southwest 413 475 30,000  Level Salt Lake Center
02:27PM 44.1361 -114.9269 227° Southwest 415 478 30,000  Level Salt Lake Center
02:28PM 44.0594 -115.0414 227° Southwest 420 483 30,000  Level Salt Lake Center
02:29PM 43.9697 -115.1739 227° Southwest 419 482 30,000  Level Salt Lake Center
02:30PM 43.8953 -115.2878 228° Southwest 414 476 30,000  Level Salt Lake Center
02:31PM 43.8197 -115.4003 227° Southwest 413 475 30,000  Level Salt Lake Center
02:32PM 43.7317 -115.5317 227° Southwest 414 476 30,000  Level Salt Lake Center
02:33PM 43.6547 -115.6439 227° Southwest 418 481 30,000  Level Salt Lake Center
02:34PM 43.5669 -115.7761 228° Southwest 418 481 30,000  Level Salt Lake Center
02:35PM 43.4911 -115.8875 227° Southwest 415 478 30,000  Level Salt Lake Center
02:36PM 43.4019 -116.0175 227° Southwest 416 479 30,000  Level Salt Lake Center
02:37PM 43.3253 -116.1281 226° Southwest 417 480 30,000  Level Salt Lake Center
02:38PM 43.2358 -116.2564 226° Southwest 416 479 30,000  Level Salt Lake Center
02:40PM 43.1594 -116.3669 227° Southwest 416 479 30,000  Level Salt Lake Center
02:41PM 43.0703 -116.4944 226° Southwest 415 478 30,000  Level Salt Lake Center
02:42PM 42.9933 -116.6033 226° Southwest 416 479 30,000  Level Salt Lake Center
02:43PM 42.9164 -116.7133 226° Southwest 419 482 30,000  Level Salt Lake Center
02:44PM 42.8264 -116.8394 226° Southwest 416 479 30,000  Level Salt Lake Center
02:45PM 42.7494 -116.9492 226° Southwest 419 482 30,000  Level Salt Lake Center
02:46PM 42.6589 -117.0761 226° Southwest 419 482 30,000  Level Salt Lake Center
02:47PM 42.5811 -117.1842 226° Southwest 418 481 30,000  Level Salt Lake Center
02:48PM 42.4900 -117.3103 226° Southwest 418 481 30,000  Level Salt Lake Center
02:49PM 42.4128 -117.4192 226° Southwest 419 482 30,000  Level Salt Lake Center
02:50PM 42.3211 -117.5447 225° Southwest 418 481 30,000  Level Salt Lake Center
02:51PM 42.2439 -117.6517 226° Southwest 417 480 30,000  Level Salt Lake Center
02:52PM 42.1658 -117.7589 226° Southwest 416 479 30,000  Level Salt Lake Center
02:53PM 42.0733 -117.8847 225° Southwest 420 483 30,000  Level Salt Lake Center
02:54PM 41.9950 -117.9928 226° Southwest 421 484 30,000  Level Salt Lake Center
02:55PM 41.9028 -118.1153 225° Southwest 419 482 30,000  Level Salt Lake Center
02:56PM 41.8250 -118.2233 226° Southwest 420 483 30,000  Level Salt Lake Center
02:57PM 41.7328 -118.3458 225° Southwest 419 482 30,000  Level Salt Lake Center
02:58PM 41.6531 -118.4514 225° Southwest 421 484 30,000 600 Level Salt Lake Center
02:59PM 41.5619 -118.5742 225° Southwest 419 482 31,300 960 Climbing Salt Lake Center
03:00PM 41.4872 -118.6689 224° Southwest 404 465 32,000 300 Climbing Salt Lake Center
03:01PM 41.4056 -118.7522 217° Southwest 391 450 32,000  Level Salt Lake Center
03:02PM 41.3219 -118.8764 228° Southwest 400 460 32,000  Level Salt Lake Center
03:03PM 41.2456 -118.9828 226° Southwest 408 470 32,000  Level Salt Lake Center
03:04PM 41.1561 -119.1036 226° Southwest 411 473 32,000  Level Salt Lake Center
03:05PM 41.0778 -119.2069 225° Southwest 414 476 32,000  Level Salt Lake Center
03:07PM 40.9817 -119.3344 225° Southwest 415 478 32,000  Level Oakland Center
03:08PM 40.8878 -119.4550 224° Southwest 417 480 32,000  Level Oakland Center
03:09PM 40.8064 -119.5619 225° Southwest 416 479 32,000  Level Oakland Center
03:10PM 40.7228 -119.6675 224° Southwest 415 478 32,000  Level Oakland Center
03:11PM 40.6403 -119.7736 224° Southwest 416 479 32,000  Level Oakland Center
03:12PM 40.5567 -119.8783 224° Southwest 415 478 32,000  Level Oakland Center
03:13PM 40.4675 -119.9933 224° Southwest 422 486 32,000 -180 Level Oakland Center
03:14PM 40.3842 -120.0983 224° Southwest 422 486 31,700 -660 Descending Oakland Center
03:15PM 40.2997 -120.2047 224° Southwest 426 490 30,700 -840 Descending Oakland Center
03:16PM 40.2092 -120.3175 224° Southwest 444 511 30,000 -360 Descending Oakland Center
03:17PM 40.1036 -120.4503 224° Southwest 442 509 30,000  Level Oakland Center
03:18PM 40.0211 -120.5500 223° Southwest 428 493 30,000  Level Oakland Center
03:19PM 39.9289 -120.6650 224° Southwest 425 489 30,000  Level Oakland Center
03:20PM 39.8444 -120.7689 223° Southwest 420 483 30,000  Level Oakland Center
03:21PM 39.7594 -120.8731 223° Southwest 420 483 30,000  Level Oakland Center
03:22PM 39.6758 -120.9767 224° Southwest 417 480 30,000  Level Oakland Center
03:23PM 39.5903 -121.0803 223° Southwest 422 486 30,000  Level Oakland Center
03:24PM 39.5114 -121.1756 223° Southwest 417 480 30,000  Level Oakland Center
03:25PM 39.4219 -121.2853 223° Southwest 417 480 30,000  Level Oakland Center
03:26PM 39.3369 -121.3872 223° Southwest 420 483 30,000  Level Oakland Center
03:27PM 39.2525 -121.4903 223° Southwest 419 482 30,000  Level Oakland Center
03:28PM 39.1506 -121.6128 223° Southwest 420 483 30,000  Level Oakland Center
03:29PM 39.0650 -121.7150 223° Southwest 421 484 30,000  Level Oakland Center
03:30PM 38.9792 -121.8169 223° Southwest 422 486 30,000  Level Oakland Center
03:31PM 38.8936 -121.9183 223° Southwest 421 484 30,000 -480 Level Oakland Center
03:32PM 38.8069 -122.0214 223° Southwest 425 489 29,100 -1,320 Descending Oakland Center
03:33PM 38.7156 -122.1272 222° Southwest 435 501 27,300 -1,860 Descending Oakland Center
03:34PM 38.6253 -122.2339 223° Southwest 442 509 25,400 -1,680 Descending Oakland Center
03:35PM 38.5356 -122.3400 223° Southwest 442 509 24,000 -1,800 Descending Oakland Center
03:36PM 38.4289 -122.4622 222° Southwest 435 501 21,800 -2,340 Descending Oakland Center
03:37PM 38.3461 -122.5592 223° Southwest 416 479 19,300 -2,100 Descending Oakland Center
03:38PM 38.2714 -122.6453 222° Southwest 377 434 17,600 -1,680 Descending Oakland Center
03:39PM 38.2072 -122.7200 222° Southwest 330 380 15,900 -1,740 Descending Oakland Center
03:40PM 38.1442 -122.7931 222° Southwest 314 361 14,100 -1,920 Descending Oakland Center
03:41PM 38.0728 -122.8333 204° Southwest 302 348 12,000 -1,560 Descending Oakland Center
03:42PM 38.0067 -122.7728 144° Southeast 298 343 11,000 -540 Descending Oakland Center
03:43PM 37.9339 -122.6978 141° Southeast 288 331 11,000  Level Oakland Center
03:44PM 37.8728 -122.6347 141° Southeast 293 337 11,000  Level Oakland Center
03:45PM 37.8081 -122.5681 141° Southeast 304 350 11,000  Level Oakland Center
03:46PM 37.7439 -122.5022 141° Southeast 302 348 11,000  Level Oakland Center
03:47PM 37.6833 -122.4400 141° Southeast 289 333 11,000  Level Oakland Center
03:48PM 37.6317 -122.3872 141° Southeast 252 290 11,000 -480 Level Oakland Center
03:49PM 37.5586 -122.3414 154° Southeast 247 284 10,100 -1,200 Descending Oakland Center
03:50PM 37.4975 -122.3044 154° Southeast 246 283 8,600 -1,500 Descending Oakland Center
03:51PM 37.4636 -122.2322 121° Southeast 250 288 7,100 -1,320 Descending Oakland Center
03:52PM 37.4506 -122.1586 103° East 239 275 6,000 -1,080 Descending Oakland Center
03:54PM 37.5053 -122.1519 North 209 241 4,900 -1,260 Descending Oakland Center
03:55PM 37.5414 -122.1922 319° Northwest 186 214 3,500 -1,320 Descending Oakland Center
03:56PM 37.5639 -122.2450 298° West 178 205 2,300 -960 Descending Oakland Center
03:57PM 37.5842 -122.2914 299° West 165 190 1,600 -780 Descending Oakland Center
03:58PM 37.6031 -122.3319 300° West 147 169 800 -780 Descending Oakland Center
03:59PM 37.6208 -122.3750 298° West 140 161 100 -720 Descending Oakland Center